KEZS

Details ICAO KEZS
Name SHAWANO MUNI
Region United States
Timezone America/Chicago (UTC-6.0)
Plans Departing 0
Arriving 2
Stats Elevation 813 ft / 248 m (AMSL)
Location 44.787297° -88.560090°
Runways 2
Magnetic Variation 3.673° W
Sunrise 2017-12-17 13:27:49 UTC / 2017-12-17 07:27:49 Local
Sunset 2017-12-17 22:15:53 UTC / 2017-12-17 16:15:53 Local
Advertisement - Login to hide

Runways

ID Width Length Bearing (true) Bearing (mag) Surface Threshold Offset Overrun Length
11 75 ft / 23 m 3,892 ft / 1,186 m 112.58° 116.25° Asphalt 0 ft / 0 m 0 ft / 0 m
17 60 ft / 18 m 2,227 ft / 679 m 164.89° 168.56° Asphalt 0 ft / 0 m 0 ft / 0 m
29 75 ft / 23 m 3,892 ft / 1,186 m 292.59° 296.26° Asphalt 0 ft / 0 m 400 ft / 122 m
35 60 ft / 18 m 2,227 ft / 679 m 344.89° 348.56° Asphalt 0 ft / 0 m 0 ft / 0 m

Map

Weather


0- 5 10 15 20 25 30 35+ Temperature / ° C

Clouds and Precipitation
Forecast for 2017-12-17 18:00 UTC. Updated an hour ago

Ground ~20,000 ft ~40,000 ft Winds

METAR

KEZS 171615Z AUTO 00000KT 10SM OVC007 M04/M06 A3013 RMK AO2 T10411060

TAF

Not found

Frequencies

Unicom 122.80 MHz CTAF/UNICOM
Approach 119.40 MHz GREEN BAY APP/DEP
Warning: Do not use this data for real-world aviation or navigation. No guarantee of current accuracy is given.